createdAt,value
2016-12-02T00:00:35.987Z,1014.23
2016-12-02T00:01:16.533Z,1014.23
2016-12-02T00:01:56.988Z,1014.18
2016-12-02T00:02:37.451Z,1014.12
2016-12-02T00:03:17.925Z,1014.18
2016-12-02T00:03:58.466Z,1014.11
2016-12-02T00:04:38.937Z,1014.1
2016-12-02T00:05:19.403Z,1013.99
2016-12-02T00:05:59.892Z,1013.95
2016-12-02T00:06:40.381Z,1014.11
2016-12-02T00:07:20.864Z,1013.99
2016-12-02T00:08:01.339Z,1014.07
2016-12-02T00:08:41.846Z,1014.15
2016-12-02T00:09:22.371Z,1014.02
2016-12-02T00:10:02.838Z,1014.11
2016-12-02T00:10:43.345Z,1014.26
2016-12-02T00:11:23.812Z,1014.19
2016-12-02T00:12:04.339Z,1014.23
2016-12-02T00:12:44.822Z,1014.21
2016-12-02T00:13:25.309Z,1014.16
2016-12-02T00:14:05.843Z,1014.15
2016-12-02T00:14:46.303Z,1014.13
2016-12-02T00:15:26.809Z,1014.21
2016-12-02T00:16:07.295Z,1014.09
2016-12-02T00:16:47.776Z,1014.26
2016-12-02T00:17:28.269Z,1014.29
2016-12-02T00:18:08.788Z,1014.37
2016-12-02T00:18:49.258Z,1014.1
2016-12-02T00:19:29.753Z,1014.13
2016-12-02T00:20:10.271Z,1014.17
2016-12-02T00:20:50.738Z,1014.14
2016-12-02T00:21:31.238Z,1014.12
2016-12-02T00:22:11.733Z,1014.12
2016-12-02T00:22:52.204Z,1014.24
2016-12-02T00:23:32.710Z,1014.1
2016-12-02T00:24:13.183Z,1014.16
2016-12-02T00:24:53.816Z,1014.19
2016-12-02T00:25:34.293Z,1014.14
2016-12-02T00:26:14.758Z,1014.16
2016-12-02T00:26:55.241Z,1014.23
2016-12-02T00:27:35.746Z,1014.1
2016-12-02T00:28:16.238Z,1014.08
2016-12-02T00:28:56.709Z,1014.21
2016-12-02T00:29:37.194Z,1014.12
2016-12-02T00:30:17.636Z,1014.15
2016-12-02T00:30:58.144Z,1014.36
2016-12-02T00:31:38.671Z,1014.23
2016-12-02T00:32:19.159Z,1014.25
2016-12-02T00:32:59.689Z,1014.3
2016-12-02T00:33:40.168Z,1014.4
2016-12-02T00:34:20.628Z,1014.37
2016-12-02T00:35:01.102Z,1014.35
2016-12-02T00:35:41.641Z,1014.35
2016-12-02T00:36:22.105Z,1014.42
2016-12-02T00:37:02.615Z,1014.37
2016-12-02T00:37:43.081Z,1014.4
2016-12-02T00:38:23.572Z,1014.36
2016-12-02T00:39:04.087Z,1014.21
2016-12-02T00:39:44.588Z,1014.54
2016-12-02T00:40:25.078Z,1014.38
2016-12-02T00:41:05.587Z,1014.4
2016-12-02T00:41:46.075Z,1014.47
2016-12-02T00:42:26.588Z,1014.51
2016-12-02T00:43:07.070Z,1014.51
2016-12-02T00:43:47.535Z,1014.45
2016-12-02T00:44:28.092Z,1014.52
2016-12-02T00:45:08.549Z,1014.58
2016-12-02T00:45:49.046Z,1014.6
2016-12-02T00:46:29.516Z,1014.66
2016-12-02T00:47:10.034Z,1014.68
2016-12-02T00:47:50.531Z,1014.7
2016-12-02T00:48:30.995Z,1014.77
2016-12-02T00:49:11.472Z,1014.79
2016-12-02T00:49:51.971Z,1014.72
2016-12-02T00:50:32.443Z,1014.7
2016-12-02T00:51:12.920Z,1014.74
2016-12-02T00:51:53.416Z,1014.63
2016-12-02T00:52:33.869Z,1014.58
2016-12-02T00:53:14.394Z,1014.75
2016-12-02T00:53:54.909Z,1014.74
2016-12-02T00:54:35.354Z,1014.65
2016-12-02T00:55:15.855Z,1014.78
2016-12-02T00:55:56.355Z,1014.77
2016-12-02T00:56:36.880Z,1014.67
2016-12-02T00:57:17.338Z,1014.73
2016-12-02T00:57:57.833Z,1014.82
2016-12-02T00:58:38.332Z,1014.76
2016-12-02T00:59:18.886Z,1014.78
2016-12-02T00:59:59.391Z,1015
2016-12-02T01:00:39.867Z,1014.91
2016-12-02T01:01:20.344Z,1014.98
2016-12-02T01:02:00.839Z,1015.15
2016-12-02T01:02:41.333Z,1015.09
2016-12-02T01:03:21.782Z,1015.1
2016-12-02T01:04:02.285Z,1015.2
2016-12-02T01:04:42.781Z,1015.16
2016-12-02T01:05:23.295Z,1015.27
2016-12-02T01:06:03.784Z,1015.09
2016-12-02T01:06:44.285Z,1015.09
2016-12-02T01:07:24.768Z,1015.08
2016-12-02T01:08:05.263Z,1015.04
2016-12-02T01:08:45.788Z,1015.08
2016-12-02T01:09:26.339Z,1015.06
2016-12-02T01:10:06.807Z,1014.94
2016-12-02T01:10:47.277Z,1014.93
2016-12-02T01:11:27.794Z,1015.06
2016-12-02T01:12:08.281Z,1015
2016-12-02T01:12:48.741Z,1015.16
2016-12-02T01:13:29.214Z,1015.16
2016-12-02T01:14:09.736Z,1015.12
2016-12-02T01:14:50.250Z,1015.16
2016-12-02T01:15:30.696Z,1015.19
2016-12-02T01:16:11.168Z,1015.22
2016-12-02T01:16:51.673Z,1015.22
2016-12-02T01:17:32.144Z,1015.25
2016-12-02T01:18:12.641Z,1015.32
2016-12-02T01:18:53.160Z,1015.22
2016-12-02T01:19:33.665Z,1015.3
2016-12-02T01:20:14.185Z,1015.36
2016-12-02T01:20:54.715Z,1015.34
2016-12-02T01:21:35.168Z,1015.42
2016-12-02T01:22:15.639Z,1015.35
2016-12-02T01:22:56.121Z,1015.39
2016-12-02T01:23:36.637Z,1015.43
2016-12-02T01:24:17.124Z,1015.37
2016-12-02T01:24:57.632Z,1015.46
2016-12-02T01:25:38.125Z,1015.4
2016-12-02T01:26:18.591Z,1015.45
2016-12-02T01:26:59.081Z,1015.54
2016-12-02T01:27:39.560Z,1015.54
2016-12-02T01:28:20.103Z,1015.54
2016-12-02T01:29:00.552Z,1015.58
2016-12-02T01:29:41.040Z,1015.55
2016-12-02T01:30:21.560Z,1015.64
2016-12-02T01:31:02.095Z,1015.61
2016-12-02T01:31:42.550Z,1015.49
2016-12-02T01:32:23.055Z,1015.55
2016-12-02T01:33:03.524Z,1015.41
2016-12-02T01:33:44.049Z,1015.46
2016-12-02T01:34:24.524Z,1015.47
2016-12-02T01:35:05.042Z,1015.46
2016-12-02T01:35:45.534Z,1015.57
2016-12-02T01:36:26.043Z,1015.52
2016-12-02T01:39:51.297Z,1015.6
2016-12-02T01:40:34.525Z,1015.59
2016-12-02T01:41:15.259Z,1015.64
2016-12-02T01:41:55.758Z,1015.59
2016-12-02T01:42:36.244Z,1015.58
2016-12-02T01:43:16.724Z,1015.56
2016-12-02T01:43:57.219Z,1015.68
2016-12-02T01:44:37.684Z,1015.56
2016-12-02T01:45:18.138Z,1015.58
2016-12-02T01:45:58.630Z,1015.49
2016-12-02T01:46:39.080Z,1015.54
2016-12-02T01:47:19.597Z,1015.55
2016-12-02T01:48:00.068Z,1015.68
2016-12-02T01:48:40.609Z,1015.56
2016-12-02T01:49:21.086Z,1015.57
2016-12-02T01:50:01.579Z,1015.64
2016-12-02T01:50:42.055Z,1015.59
2016-12-02T01:51:22.531Z,1015.57
2016-12-02T01:52:03.012Z,1015.62
2016-12-02T01:52:43.467Z,1015.72
2016-12-02T01:53:23.935Z,1015.68
2016-12-02T01:54:04.483Z,1015.72
2016-12-02T01:54:44.951Z,1015.77
2016-12-02T01:55:25.456Z,1015.77
2016-12-02T01:56:05.934Z,1015.79
2016-12-02T01:56:46.400Z,1015.77
2016-12-02T01:57:26.853Z,1015.77
2016-12-02T01:58:07.352Z,1015.8
2016-12-02T01:58:47.816Z,1015.76
2016-12-02T01:59:28.334Z,1015.75
2016-12-02T02:00:08.871Z,1015.76
2016-12-02T02:00:49.349Z,1015.82
2016-12-02T02:01:29.807Z,1015.77
2016-12-02T02:02:10.267Z,1015.72
2016-12-02T02:02:50.749Z,1015.76
2016-12-02T02:03:31.255Z,1015.76
2016-12-02T02:04:11.800Z,1015.7
2016-12-02T02:04:52.309Z,1015.69
2016-12-02T02:05:32.810Z,1015.75
2016-12-02T02:06:13.303Z,1015.74
2016-12-02T02:06:53.837Z,1015.8
2016-12-02T02:07:34.337Z,1015.81
2016-12-02T02:08:14.787Z,1015.78
2016-12-02T02:08:55.263Z,1015.88
2016-12-02T02:09:35.778Z,1015.89
2016-12-02T02:10:16.266Z,1015.84
2016-12-02T02:10:56.774Z,1015.8
2016-12-02T02:11:37.271Z,1015.82
2016-12-02T02:12:17.736Z,1015.9
2016-12-02T02:12:58.172Z,1015.88
2016-12-02T02:13:38.649Z,1015.94
2016-12-02T02:14:19.122Z,1015.92
2016-12-02T02:14:59.616Z,1015.96
2016-12-02T02:15:40.077Z,1015.96
2016-12-02T02:16:20.610Z,1016.02
2016-12-02T02:17:01.116Z,1016.03
2016-12-02T02:17:41.578Z,1016.04
2016-12-02T02:18:22.089Z,1016.06
2016-12-02T02:19:02.620Z,1016.08
2016-12-02T02:19:43.100Z,1016.07
2016-12-02T02:20:23.618Z,1016.05
2016-12-02T02:21:04.128Z,1016.12
2016-12-02T02:21:44.622Z,1016.1
2016-12-02T02:22:25.161Z,1016.08
2016-12-02T02:23:05.646Z,1016.07
2016-12-02T02:23:46.742Z,1016.13
2016-12-02T02:24:27.241Z,1016.08
2016-12-02T02:25:07.734Z,1016.07
2016-12-02T02:25:48.232Z,1016.06
2016-12-02T02:26:28.700Z,1016.08
2016-12-02T02:27:09.194Z,1016.07
2016-12-02T02:27:49.682Z,1016.1
2016-12-02T02:28:30.132Z,1016.09
2016-12-02T02:29:10.641Z,1016.16
2016-12-02T02:29:51.133Z,1016.14
2016-12-02T02:30:31.615Z,1016.23
2016-12-02T02:31:12.098Z,1016.19
2016-12-02T02:31:52.589Z,1016.17
2016-12-02T02:32:33.080Z,1016.28
2016-12-02T02:33:13.556Z,1016.23
2016-12-02T02:33:54.029Z,1016.26
2016-12-02T02:34:34.513Z,1016.27
2016-12-02T02:35:14.982Z,1016.22
2016-12-02T02:35:55.510Z,1016.25
2016-12-02T02:36:36.001Z,1016.25
2016-12-02T02:37:16.487Z,1016.23
2016-12-02T02:37:56.992Z,1016.21
2016-12-02T02:38:37.452Z,1016.19
2016-12-02T02:39:17.914Z,1016.34
2016-12-02T02:39:58.377Z,1016.25
2016-12-02T02:40:38.882Z,1016.27
2016-12-02T02:41:19.393Z,1016.39
2016-12-02T02:41:59.870Z,1016.28
2016-12-02T02:42:40.338Z,1016.34
2016-12-02T02:43:20.827Z,1016.37
2016-12-02T02:44:01.301Z,1016.38
2016-12-02T02:44:41.805Z,1016.35
2016-12-02T02:45:22.303Z,1016.39
2016-12-02T02:46:02.787Z,1016.35
2016-12-02T02:46:43.296Z,1016.38
2016-12-02T02:47:23.800Z,1016.35
2016-12-02T02:48:04.245Z,1016.36
2016-12-02T02:48:44.726Z,1016.41
2016-12-02T02:49:25.221Z,1016.29
2016-12-02T02:50:05.715Z,1016.32
2016-12-02T02:50:46.206Z,1016.34
2016-12-02T02:51:26.714Z,1016.3
2016-12-02T02:52:07.210Z,1016.32
2016-12-02T02:52:47.686Z,1016.32
2016-12-02T02:53:28.202Z,1016.27
2016-12-02T02:54:08.651Z,1016.32
2016-12-02T02:54:49.140Z,1016.26
2016-12-02T02:55:29.634Z,1016.26
2016-12-02T02:56:10.125Z,1016.27
2016-12-02T02:56:50.649Z,1016.23
2016-12-02T02:57:31.107Z,1016.25
2016-12-02T02:58:11.600Z,1016.3
2016-12-02T02:58:52.070Z,1016.33
2016-12-02T02:59:32.588Z,1016.32
2016-12-02T03:00:13.095Z,1016.41
2016-12-02T03:00:53.613Z,1016.43
2016-12-02T03:01:34.069Z,1016.44
2016-12-02T03:02:14.554Z,1016.46
2016-12-02T03:02:55.084Z,1016.42
2016-12-02T03:03:35.575Z,1016.4
2016-12-02T03:04:16.034Z,1016.46
2016-12-02T03:04:56.553Z,1016.38
2016-12-02T03:05:37.043Z,1016.41
2016-12-02T03:06:17.491Z,1016.4
2016-12-02T03:06:58.880Z,1016.42
2016-12-02T03:07:38.463Z,1016.39
2016-12-02T03:08:18.961Z,1016.41
2016-12-02T03:08:59.434Z,1016.47
2016-12-02T03:09:39.918Z,1016.43
2016-12-02T03:10:20.431Z,1016.52
2016-12-02T03:11:00.903Z,1016.55
2016-12-02T03:11:41.375Z,1016.58
2016-12-02T03:12:21.908Z,1016.6
2016-12-02T03:13:02.365Z,1016.61
2016-12-02T03:13:42.882Z,1016.6
2016-12-02T03:14:23.383Z,1016.55
2016-12-02T03:15:03.838Z,1016.51
2016-12-02T03:15:44.325Z,1016.51
2016-12-02T03:16:24.773Z,1016.44
2016-12-02T03:17:05.261Z,1016.48
2016-12-02T03:17:45.734Z,1016.42
2016-12-02T03:18:26.178Z,1016.49
2016-12-02T03:19:06.710Z,1016.49
2016-12-02T03:19:47.242Z,1016.49
2016-12-02T03:20:27.730Z,1016.5
2016-12-02T03:21:08.174Z,1016.55
2016-12-02T03:21:48.661Z,1016.55
2016-12-02T03:22:29.117Z,1016.63
2016-12-02T03:23:09.614Z,1016.56
2016-12-02T03:23:50.109Z,1016.6
2016-12-02T03:24:30.607Z,1016.53
2016-12-02T03:25:11.104Z,1016.53
2016-12-02T03:25:51.553Z,1016.54
2016-12-02T03:26:32.075Z,1016.58
2016-12-02T03:27:12.568Z,1016.55
2016-12-02T03:27:53.028Z,1016.53
2016-12-02T03:28:33.489Z,1016.55
2016-12-02T03:29:13.965Z,1016.54
2016-12-02T03:29:54.443Z,1016.51
2016-12-02T03:30:34.958Z,1016.56
2016-12-02T03:31:15.462Z,1016.58
2016-12-02T03:31:55.948Z,1016.62
2016-12-02T03:32:36.412Z,1016.6
2016-12-02T03:33:16.933Z,1016.65
2016-12-02T03:35:19.012Z,1016.71
2016-12-02T03:36:01.102Z,1016.62
2016-12-02T03:39:43.071Z,1016.63
2016-12-02T03:40:28.700Z,1016.58
2016-12-02T03:41:09.184Z,1016.56
2016-12-02T03:41:49.694Z,1016.6
2016-12-02T03:42:30.192Z,1016.55
2016-12-02T03:43:10.653Z,1016.59
2016-12-02T03:43:51.089Z,1016.64
2016-12-02T03:44:31.597Z,1016.65
2016-12-02T03:45:12.107Z,1016.62
2016-12-02T03:45:52.603Z,1016.63
2016-12-02T03:46:33.088Z,1016.61
2016-12-02T03:47:13.583Z,1016.63
2016-12-02T03:47:54.111Z,1016.61
2016-12-02T03:48:34.614Z,1016.61
2016-12-02T03:49:15.192Z,1016.62
2016-12-02T03:49:55.655Z,1016.65
2016-12-02T03:50:36.168Z,1016.69
2016-12-02T03:51:16.735Z,1016.7
2016-12-02T03:51:57.231Z,1016.67
2016-12-02T03:52:38.271Z,1016.64
2016-12-02T03:53:18.721Z,1016.66
2016-12-02T03:53:59.194Z,1016.7
2016-12-02T03:54:39.689Z,1016.68
2016-12-02T03:55:20.200Z,1016.71
2016-12-02T03:56:00.711Z,1016.75
2016-12-02T03:56:41.210Z,1016.74
2016-12-02T03:57:21.767Z,1016.78
2016-12-02T03:58:02.253Z,1016.7
2016-12-02T03:58:42.729Z,1016.77
2016-12-02T03:59:23.192Z,1016.83
2016-12-02T04:00:03.635Z,1016.83
2016-12-02T04:00:44.143Z,1016.85
2016-12-02T04:01:24.645Z,1016.86
2016-12-02T04:02:05.116Z,1016.89
2016-12-02T04:02:45.585Z,1016.91
2016-12-02T04:03:26.090Z,1016.94
2016-12-02T04:04:06.596Z,1016.9
2016-12-02T04:04:47.028Z,1016.92
2016-12-02T04:05:27.505Z,1016.92
2016-12-02T04:06:07.983Z,1016.99
2016-12-02T04:08:09.267Z,1016.92
2016-12-02T04:08:57.581Z,1017.01
2016-12-02T04:11:18.921Z,1017.05
2016-12-02T04:12:02.725Z,1017.01
2016-12-02T04:12:45.626Z,1017.03
2016-12-02T04:13:26.125Z,1017.04
2016-12-02T04:14:06.591Z,1017.07
2016-12-02T04:14:47.104Z,1017.06
2016-12-02T04:15:27.606Z,1017.07
2016-12-02T04:16:08.067Z,1017.11
2016-12-02T04:16:48.544Z,1017.11
2016-12-02T04:17:29.067Z,1017.11
2016-12-02T04:18:09.543Z,1017.14
2016-12-02T04:18:50.004Z,1017.13
2016-12-02T04:19:30.493Z,1017.15
2016-12-02T04:20:10.947Z,1017.12
2016-12-02T04:20:51.472Z,1017.12
2016-12-02T04:21:31.902Z,1017.13
2016-12-02T04:22:12.395Z,1017.14
2016-12-02T04:22:52.835Z,1017.1
2016-12-02T04:23:33.353Z,1017.12
2016-12-02T04:24:13.780Z,1017.09
2016-12-02T04:24:54.272Z,1017.12
2016-12-02T04:25:34.753Z,1017.1
2016-12-02T04:26:15.206Z,1017.12
2016-12-02T04:26:55.697Z,1017.1
2016-12-02T04:27:36.215Z,1017.16
2016-12-02T04:28:16.655Z,1017.14
2016-12-02T04:28:57.163Z,1017.16
2016-12-02T04:29:37.636Z,1017.21
2016-12-02T04:30:18.115Z,1017.14
2016-12-02T04:30:58.609Z,1017.19
2016-12-02T04:31:39.074Z,1017.19
2016-12-02T04:32:19.553Z,1017.21
2016-12-02T04:33:00.029Z,1017.19
2016-12-02T04:33:40.496Z,1017.22
2016-12-02T04:34:20.967Z,1017.17
2016-12-02T04:35:01.462Z,1017.19
2016-12-02T04:35:41.963Z,1017.14
2016-12-02T04:36:22.482Z,1017.23
2016-12-02T04:37:02.965Z,1017.2
2016-12-02T04:37:43.413Z,1017.2
2016-12-02T04:38:23.902Z,1017.23
2016-12-02T04:39:04.389Z,1017.25
2016-12-02T04:39:44.860Z,1017.25
2016-12-02T04:40:25.401Z,1017.24
2016-12-02T04:41:05.884Z,1017.31
2016-12-02T04:41:46.401Z,1017.29
2016-12-02T04:42:26.957Z,1017.28
2016-12-02T04:43:07.467Z,1017.28
2016-12-02T04:43:47.949Z,1017.29
2016-12-02T04:44:28.415Z,1017.29
2016-12-02T04:45:08.924Z,1017.33
2016-12-02T04:45:49.452Z,1017.35
2016-12-02T04:46:29.926Z,1017.37
2016-12-02T04:47:10.421Z,1017.36
2016-12-02T04:47:50.899Z,1017.35
2016-12-02T04:48:31.363Z,1017.39
2016-12-02T04:49:11.902Z,1017.32
2016-12-02T04:49:52.425Z,1017.34
2016-12-02T04:50:32.850Z,1017.4
2016-12-02T04:51:13.373Z,1017.34
2016-12-02T04:51:53.817Z,1017.34
2016-12-02T04:52:34.322Z,1017.33
2016-12-02T04:53:14.801Z,1017.34
2016-12-02T04:53:55.308Z,1017.36
2016-12-02T04:54:35.799Z,1017.34
2016-12-02T04:55:16.264Z,1017.35
2016-12-02T04:55:56.733Z,1017.37
2016-12-02T04:58:16.896Z,1017.38
2016-12-02T05:02:25.836Z,1017.42
2016-12-02T05:04:49.063Z,1017.48
2016-12-02T05:05:34.623Z,1017.47
2016-12-02T05:06:16.435Z,1017.51
2016-12-02T05:06:56.885Z,1017.51
2016-12-02T05:07:37.363Z,1017.55
2016-12-02T05:08:17.869Z,1017.58
2016-12-02T05:08:58.333Z,1017.57
2016-12-02T05:09:38.824Z,1017.58
2016-12-02T05:10:19.337Z,1017.6
2016-12-02T05:10:59.813Z,1017.63
2016-12-02T05:11:40.293Z,1017.67
2016-12-02T05:12:20.782Z,1017.67
2016-12-02T05:13:01.238Z,1017.62
2016-12-02T05:13:41.739Z,1017.69
2016-12-02T05:14:22.221Z,1017.68
2016-12-02T05:15:02.738Z,1017.61
2016-12-02T05:15:43.220Z,1017.64
2016-12-02T05:16:23.859Z,1017.66
2016-12-02T05:17:04.322Z,1017.69
2016-12-02T05:17:44.786Z,1017.68
2016-12-02T05:18:25.298Z,1017.66
2016-12-02T05:19:05.772Z,1017.64
2016-12-02T05:19:46.252Z,1017.64
2016-12-02T05:20:26.755Z,1017.63
2016-12-02T05:21:07.234Z,1017.67
2016-12-02T05:21:47.744Z,1017.69
2016-12-02T05:22:28.274Z,1017.69
2016-12-02T05:23:08.766Z,1017.68
2016-12-02T05:23:49.268Z,1017.77
2016-12-02T05:24:29.767Z,1017.75
2016-12-02T05:25:10.230Z,1017.77
2016-12-02T05:25:50.668Z,1017.79
2016-12-02T05:26:31.205Z,1017.75
2016-12-02T05:27:11.749Z,1017.79
2016-12-02T05:27:52.215Z,1017.77
2016-12-02T05:28:32.719Z,1017.77
2016-12-02T05:29:13.185Z,1017.79
2016-12-02T05:29:53.629Z,1017.77
2016-12-02T05:30:34.140Z,1017.85
2016-12-02T05:31:14.623Z,1017.85
2016-12-02T05:31:55.120Z,1017.87
2016-12-02T05:32:35.587Z,1017.86
2016-12-02T05:33:16.089Z,1017.83
2016-12-02T05:33:56.595Z,1017.82
2016-12-02T05:34:37.078Z,1017.88
2016-12-02T05:35:17.573Z,1017.85
2016-12-02T05:35:58.076Z,1017.85
2016-12-02T05:36:38.597Z,1017.87
2016-12-02T05:37:19.076Z,1017.87
2016-12-02T05:38:00.277Z,1017.87
2016-12-02T05:38:40.752Z,1017.89
2016-12-02T05:39:21.288Z,1017.89
2016-12-02T05:40:01.756Z,1017.89
2016-12-02T05:40:42.217Z,1017.92
2016-12-02T05:41:22.731Z,1017.91
2016-12-02T05:42:03.200Z,1017.89
2016-12-02T05:42:43.670Z,1017.88
2016-12-02T05:43:24.166Z,1017.9
2016-12-02T05:44:04.648Z,1017.9
2016-12-02T05:44:45.132Z,1017.9
2016-12-02T05:45:25.590Z,1017.93
2016-12-02T05:46:06.092Z,1017.93
2016-12-02T05:46:46.556Z,1017.93
2016-12-02T05:47:27.095Z,1017.95
2016-12-02T05:48:07.544Z,1017.91
2016-12-02T05:48:48.031Z,1017.89
2016-12-02T05:49:28.526Z,1017.89
2016-12-02T05:50:09.082Z,1017.95
2016-12-02T05:50:49.552Z,1017.91
2016-12-02T05:51:30.055Z,1017.84
2016-12-02T05:52:10.526Z,1017.87
2016-12-02T05:52:51.029Z,1017.91
2016-12-02T05:53:31.481Z,1017.86
2016-12-02T05:54:12.030Z,1017.92
2016-12-02T05:54:52.502Z,1017.91
2016-12-02T05:55:32.988Z,1017.99
2016-12-02T05:56:13.462Z,1017.97
2016-12-02T05:56:53.940Z,1018
2016-12-02T05:57:34.422Z,1018.04
2016-12-02T05:58:14.908Z,1018.03
2016-12-02T05:58:55.362Z,1018.06
2016-12-02T05:59:35.856Z,1018.1
2016-12-02T06:00:16.334Z,1018.1
2016-12-02T06:00:56.808Z,1018.05
2016-12-02T06:01:37.299Z,1018.11
2016-12-02T06:02:17.802Z,1018.1
2016-12-02T06:02:58.277Z,1018.11
2016-12-02T06:03:38.760Z,1018.17
2016-12-02T06:04:19.206Z,1018.2
2016-12-02T06:04:59.679Z,1018.18
2016-12-02T06:05:40.138Z,1018.22
2016-12-02T06:06:20.621Z,1018.23
2016-12-02T06:07:01.120Z,1018.19
2016-12-02T06:07:41.610Z,1018.26
2016-12-02T06:08:22.105Z,1018.22
2016-12-02T06:09:02.575Z,1018.18
2016-12-02T06:09:43.050Z,1018.16
2016-12-02T06:10:23.541Z,1018.17
2016-12-02T06:11:04.043Z,1018.13
2016-12-02T06:11:44.541Z,1018.16
2016-12-02T06:12:25.053Z,1018.14
2016-12-02T06:13:05.543Z,1018.16
2016-12-02T06:13:46.027Z,1018.19
2016-12-02T06:14:26.518Z,1018.16
2016-12-02T06:15:07.017Z,1018.15
2016-12-02T06:15:47.494Z,1018.19
2016-12-02T06:16:27.982Z,1018.15
2016-12-02T06:17:08.436Z,1018.18
2016-12-02T06:17:48.945Z,1018.26
2016-12-02T06:18:29.432Z,1018.2
2016-12-02T06:19:09.956Z,1018.26
2016-12-02T06:19:50.457Z,1018.26
2016-12-02T06:20:30.947Z,1018.27
2016-12-02T06:21:11.384Z,1018.25
2016-12-02T06:21:51.899Z,1018.32
2016-12-02T06:22:32.386Z,1018.28
2016-12-02T06:23:12.830Z,1018.28
2016-12-02T06:23:53.308Z,1018.31
2016-12-02T06:24:33.820Z,1018.31
2016-12-02T06:25:14.256Z,1018.31
2016-12-02T06:25:54.726Z,1018.35
2016-12-02T06:26:35.246Z,1018.3
2016-12-02T06:27:15.763Z,1018.32
2016-12-02T06:27:56.240Z,1018.32
2016-12-02T06:28:36.790Z,1018.3
2016-12-02T06:29:17.280Z,1018.34
2016-12-02T06:29:57.767Z,1018.36
2016-12-02T06:30:38.269Z,1018.34
2016-12-02T06:31:18.712Z,1018.35
2016-12-02T06:31:59.225Z,1018.38
2016-12-02T06:32:39.668Z,1018.32
2016-12-02T06:33:20.132Z,1018.3
2016-12-02T06:34:00.666Z,1018.29
2016-12-02T06:34:41.144Z,1018.36
2016-12-02T06:35:21.656Z,1018.33
2016-12-02T06:36:02.149Z,1018.37
2016-12-02T06:36:42.647Z,1018.4
2016-12-02T06:37:23.141Z,1018.39
2016-12-02T06:38:03.645Z,1018.41
2016-12-02T06:38:44.111Z,1018.44
2016-12-02T06:39:24.577Z,1018.45
2016-12-02T06:40:05.123Z,1018.48
2016-12-02T06:40:45.570Z,1018.49
2016-12-02T06:41:27.005Z,1018.48
2016-12-02T06:42:07.462Z,1018.5
2016-12-02T06:42:47.949Z,1018.53
2016-12-02T06:43:28.437Z,1018.48
2016-12-02T06:44:08.911Z,1018.53
2016-12-02T06:44:49.395Z,1018.52
2016-12-02T06:45:29.925Z,1018.51
2016-12-02T06:46:10.427Z,1018.56
2016-12-02T06:46:50.920Z,1018.57
2016-12-02T06:47:31.411Z,1018.53
2016-12-02T06:48:11.912Z,1018.55
2016-12-02T06:48:52.401Z,1018.56
2016-12-02T06:49:32.899Z,1018.55
2016-12-02T06:50:13.398Z,1018.54
2016-12-02T06:50:53.892Z,1018.58
2016-12-02T06:51:34.375Z,1018.6
2016-12-02T06:52:14.857Z,1018.55
2016-12-02T06:52:55.365Z,1018.62
2016-12-02T06:53:35.857Z,1018.6
2016-12-02T06:54:16.354Z,1018.59
2016-12-02T06:54:56.862Z,1018.62
2016-12-02T06:55:37.349Z,1018.61
2016-12-02T06:56:17.832Z,1018.66
2016-12-02T06:56:58.333Z,1018.67
2016-12-02T06:57:38.828Z,1018.72
2016-12-02T06:58:19.312Z,1018.73
2016-12-02T06:58:59.800Z,1018.77
2016-12-02T06:59:40.290Z,1018.85
2016-12-02T07:01:54.433Z,1018.91
2016-12-02T07:02:34.920Z,1018.87
2016-12-02T07:03:15.417Z,1018.91
2016-12-02T07:03:55.911Z,1018.94
2016-12-02T07:04:36.407Z,1018.93
2016-12-02T07:05:16.907Z,1018.92
2016-12-02T07:05:57.404Z,1018.98
2016-12-02T07:06:37.903Z,1019
2016-12-02T07:08:57.718Z,1019.02
2016-12-02T07:09:38.170Z,1019.05
2016-12-02T07:10:18.628Z,1019.08
2016-12-02T07:10:59.095Z,1019.12
2016-12-02T07:11:39.595Z,1019.1
2016-12-02T07:12:20.078Z,1019.08
2016-12-02T07:13:00.549Z,1019.09
2016-12-02T07:13:41.049Z,1019.07
2016-12-02T07:14:21.514Z,1019.06
2016-12-02T07:15:01.979Z,1019.06
2016-12-02T07:15:42.459Z,1019.09
2016-12-02T07:16:22.927Z,1019.1
2016-12-02T07:17:03.400Z,1019.1
2016-12-02T07:17:43.868Z,1019.1
2016-12-02T07:18:24.364Z,1019.11
2016-12-02T07:19:04.816Z,1019.06
2016-12-02T07:19:45.300Z,1019.12
2016-12-02T07:20:25.757Z,1019.16
2016-12-02T07:21:06.234Z,1019.18
2016-12-02T07:21:46.717Z,1019.18
2016-12-02T07:22:27.223Z,1019.18
2016-12-02T07:23:07.711Z,1019.24
2016-12-02T07:23:48.184Z,1019.27
2016-12-02T07:24:28.651Z,1019.21
2016-12-02T07:25:09.168Z,1019.25
2016-12-02T07:25:49.602Z,1019.24
2016-12-02T07:26:30.070Z,1019.26
2016-12-02T07:27:10.525Z,1019.25
2016-12-02T07:27:51.014Z,1019.28
2016-12-02T07:28:31.513Z,1019.31
2016-12-02T07:29:11.941Z,1019.28
2016-12-02T07:29:52.399Z,1019.26
2016-12-02T07:30:32.910Z,1019.27
2016-12-02T07:31:13.371Z,1019.27
2016-12-02T07:31:53.814Z,1019.25
2016-12-02T07:32:34.279Z,1019.22
2016-12-02T07:33:14.789Z,1019.21
2016-12-02T07:33:55.241Z,1019.26
2016-12-02T07:34:35.707Z,1019.23
2016-12-02T07:35:16.155Z,1019.24
2016-12-02T07:35:56.664Z,1019.33
2016-12-02T07:36:37.139Z,1019.33
2016-12-02T07:37:17.644Z,1019.37
2016-12-02T07:37:58.108Z,1019.39
2016-12-02T07:38:38.575Z,1019.4
2016-12-02T07:39:19.035Z,1019.39
2016-12-02T07:39:59.526Z,1019.45
2016-12-02T07:40:39.990Z,1019.5
2016-12-02T07:41:20.464Z,1019.48
2016-12-02T07:42:00.925Z,1019.49
2016-12-02T07:42:41.436Z,1019.58
2016-12-02T07:43:21.914Z,1019.49
2016-12-02T07:44:02.361Z,1019.54
2016-12-02T07:44:42.895Z,1019.57
2016-12-02T07:45:23.370Z,1019.57
2016-12-02T07:46:03.823Z,1019.59
2016-12-02T07:46:44.316Z,1019.6
2016-12-02T07:47:24.765Z,1019.59
2016-12-02T07:48:05.272Z,1019.57
2016-12-02T07:48:45.757Z,1019.61
2016-12-02T07:49:26.225Z,1019.59
2016-12-02T07:50:06.714Z,1019.62
2016-12-02T07:50:47.183Z,1019.64
2016-12-02T07:51:27.655Z,1019.62
2016-12-02T07:52:08.148Z,1019.65
2016-12-02T07:52:48.587Z,1019.68
2016-12-02T07:53:29.067Z,1019.68
2016-12-02T07:54:09.539Z,1019.67
2016-12-02T07:54:50.036Z,1019.63
2016-12-02T07:55:30.518Z,1019.67
2016-12-02T07:56:10.992Z,1019.66
2016-12-02T07:56:51.444Z,1019.62
2016-12-02T07:57:31.933Z,1019.63
2016-12-02T07:58:12.381Z,1019.63
2016-12-02T07:58:52.849Z,1019.7
2016-12-02T07:59:33.347Z,1019.65
2016-12-02T08:00:13.820Z,1019.71
2016-12-02T08:00:54.390Z,1019.73
2016-12-02T08:01:34.845Z,1019.7
2016-12-02T08:02:15.309Z,1019.72
2016-12-02T08:02:55.806Z,1019.77
2016-12-02T08:03:36.280Z,1019.8
2016-12-02T08:04:19.481Z,1019.74
2016-12-02T08:05:04.313Z,1019.78
2016-12-02T08:07:41.605Z,1019.77
2016-12-02T08:08:24.094Z,1019.8
2016-12-02T08:09:04.584Z,1019.82
2016-12-02T08:09:45.078Z,1019.87
2016-12-02T08:10:25.598Z,1019.87
2016-12-02T08:11:06.063Z,1019.85
2016-12-02T08:11:49.516Z,1019.87
2016-12-02T08:12:36.637Z,1019.87
2016-12-02T08:13:19.023Z,1019.9
2016-12-02T08:13:59.199Z,1019.9
2016-12-02T08:14:39.693Z,1019.88
2016-12-02T08:15:20.205Z,1019.91
2016-12-02T08:16:00.686Z,1019.93
2016-12-02T08:16:41.121Z,1019.95
2016-12-02T08:17:21.616Z,1019.92
2016-12-02T08:18:02.124Z,1019.95
2016-12-02T08:18:42.613Z,1019.93
2016-12-02T08:19:23.137Z,1019.93
2016-12-02T08:20:03.634Z,1019.95
2016-12-02T08:20:44.120Z,1019.99
2016-12-02T08:21:24.611Z,1019.97
2016-12-02T08:22:08.588Z,1019.98
2016-12-02T08:22:49.094Z,1020.02
2016-12-02T08:23:29.566Z,1020.02
2016-12-02T08:24:10.095Z,1019.99
2016-12-02T08:24:50.594Z,1020.04
2016-12-02T08:25:31.103Z,1020.1
2016-12-02T08:26:11.586Z,1020.02
2016-12-02T08:26:52.148Z,1020.09
2016-12-02T08:27:34.018Z,1020.04
2016-12-02T08:28:14.726Z,1020.04
2016-12-02T08:28:55.217Z,1020.08
2016-12-02T08:29:35.705Z,1020.07
2016-12-02T08:30:16.216Z,1020.07
2016-12-02T08:30:56.721Z,1020.12
2016-12-02T08:31:37.214Z,1020.07
2016-12-02T08:32:17.732Z,1020.1
2016-12-02T08:32:58.213Z,1020.09
2016-12-02T08:33:38.714Z,1020.13
2016-12-02T08:34:19.219Z,1020.14
2016-12-02T08:34:59.707Z,1020.13